• Join FlightAware (Why Join?)
  • Login
  • US Flag 
04:26PM EDT


 

Airport Tracker/Info


-or-


 

Live Flight TrackerFlight Track Log ✈ UAL5862 ✈ 24-Apr-2013 ✈ KTYS - KIAD

Flight Track Log - Related Links

Times and Time Zones

All times are in EDT time to prevent confusion due to time zone crossing. See the UAL5862 flight status page for this flight to view local times or setup timezone preferences in your user account.

Time Position Orientation Groundspeed Altitude Reporting Facility
EDT Latitude Longitude Course Direction KTS MPH feet Rate Location/Type
06:04AM 35.8164 -84.0747 27° Northeast 160 184 4,900  Level Atlanta Center
06:05AM 35.8622 -84.0106 49° Northeast 117 135 7,700 2,460 Climbing Atlanta Center
06:06AM 35.8975 -83.9158 65° Northeast 176 203 9,900 1,500 Climbing Atlanta Center
06:07AM 36.2945 -83.6262 27° Northeast  Level FlightAware Approximate
06:07AM 35.9747 -83.8514 34° Northeast 272 313 10,800  Level Atlanta Center
06:08AM 36.3970 -83.5604 27° Northeast  Level FlightAware Approximate
06:08AM 36.0706 -83.7947 26° Northeast 343 395 12,500  Level Atlanta Center
06:09AM 36.4995 -83.4944 27° Northeast  Level FlightAware Approximate
06:09AM 36.1664 -83.7328 28° Northeast 360 414 14,200  Level Atlanta Center
06:10AM 36.2725 -83.6628 28° Northeast 385 443 16,000 1,560 Climbing Atlanta Center
06:11AM 36.3822 -83.5911 28° Northeast 396 456 17,800 1,320 Climbing Indianapolis Center
06:12AM 36.4817 -83.5283 27° Northeast 401 461 19,100 1,320 Climbing Indianapolis Center
06:13AM 36.5906 -83.4589 27° Northeast 408 470 20,500 1,320 Climbing Indianapolis Center
06:14AM 36.6942 -83.3925 27° Northeast 414 476 21,800 1,380 Climbing Indianapolis Center
06:15AM 36.7989 -83.3250 27° Northeast 418 481 23,300 1,500 Climbing Indianapolis Center
06:16AM 36.9047 -83.2572 27° Northeast 422 486 24,900 1,500 Climbing Indianapolis Center
06:17AM 37.0081 -83.1906 27° Northeast 416 479 26,400 1,440 Climbing Indianapolis Center
06:18AM 37.1125 -83.1242 27° Northeast 414 476 27,900 1,380 Climbing Indianapolis Center
06:19AM 37.2144 -83.0567 28° Northeast 412 474 29,200 1,440 Climbing Indianapolis Center
06:20AM 37.2800 -82.9353 56° Northeast 425 489 30,900 840 Climbing Indianapolis Center
06:21AM 37.3242 -82.7867 69° East 449 517 31,000  Climbing Indianapolis Center
06:22AM 37.3697 -82.6264 70° East 478 550 31,000  Level Indianapolis Center
06:23AM 37.4153 -82.4617 71° East 492 566 31,000  Level Indianapolis Center
06:24AM 37.4619 -82.2961 70° East 499 574 31,000  Level Indianapolis Center
06:25AM 37.5089 -82.1311 70° East 499 574 31,000  Level Indianapolis Center
06:26AM 37.5542 -81.9642 71° East 501 577 31,000  Level Indianapolis Center
06:27AM 37.6008 -81.7967 71° East 505 581 31,000  Level Indianapolis Center
06:28AM 37.6456 -81.6289 71° East 505 581 31,000  Level Indianapolis Center
06:29AM 37.6872 -81.4733 71° East 502 578 31,000  Level Indianapolis Center
06:30AM 37.7303 -81.3108 71° East 503 579 31,000  Level Washington Center
06:31AM 37.7733 -81.1486 71° East 503 579 31,000  Level Washington Center
06:32AM 37.8286 -80.9897 66° East 496 571 31,000  Level Washington Center
06:33AM 37.8789 -80.8458 66° East 496 571 31,000  Level Washington Center
06:34AM 37.9397 -80.6894 64° Northeast 496 571 31,000 -780 Level Washington Center
06:35AM 38.0064 -80.5439 60° Northeast 485 558 29,500 -1,020 Descending Washington Center
06:36AM 38.0772 -80.3928 59° Northeast 479 551 29,000 -300 Descending Washington Center
06:37AM 38.1433 -80.2492 60° Northeast 474 545 29,000  Level Washington Center
06:38AM 38.2206 -80.0875 59° Northeast 479 551 29,000  Level Washington Center
06:39AM 38.2886 -79.9381 60° Northeast 479 551 29,000 -360 Level Washington Center
06:40AM 38.3583 -79.7914 59° Northeast 479 551 28,300 -1,320 Descending Washington Center
06:41AM 38.4261 -79.6442 60° Northeast 473 544 26,400 -1,980 Descending Washington Center
06:42AM 38.4914 -79.4964 61° Northeast 473 544 24,400 -1,200 Descending Washington Center
06:43AM 38.5375 -79.3581 67° East 473 544 24,000 -240 Descending Washington Center
06:44AM 38.5678 -79.1872 77° East 473 544 24,000 -720 Level Washington Center
06:45AM 38.5933 -79.0264 78° East 473 544 22,600 -2,040 Descending Washington Center
06:46AM 38.6183 -78.8758 78° East 451 519 20,000 -2,820 Descending Washington Center
06:47AM 38.6469 -78.7417 75° East 416 479 17,000 -3,120 Descending Washington Center
06:48AM 38.6775 -78.6100 73° East 397 457 13,800 -2,700 Descending Washington Center
06:49AM 38.7078 -78.4836 73° East 379 436 11,600 -1,560 Descending Washington Center
06:50AM 38.7375 -78.3728 71° East 350 403 10,700 -1,500 Descending Washington Center
06:51AM 38.8058 -78.3036 38° Northeast 304 350 8,600 -2,040 Descending Washington Center
06:52AM 38.8794 -78.2636 23° Northeast 281 323 6,700 -1,320 Descending Washington Center
06:53AM 38.9494 -78.2153 28° Northeast 281 323 6,000 -360 Descending Washington Center
06:54AM 38.9661 -78.1225 77° East 254 292 6,000  Level Washington Center
06:55AM 38.9658 -78.0264 90° East 244 281 6,000  Level Washington Center
06:56AM 38.9906 -77.9364 71° East 250 288 6,000  Level Washington Center
06:57AM 39.0356 -77.8764 46° Northeast 242 278 6,000  Level Washington Center
06:59AM 38.9667 -77.7333 122° Southeast 269 310 6,000  Level Potomac TRACON
07:00AM 38.9667 -77.6500 90° East 257 296 6,000  Level Potomac TRACON
07:01AM 39.0000 -77.5833 57° Northeast 251 289 6,000  Level Potomac TRACON
07:02AM 39.0500 -77.5667 15° North 229 264 6,000  Level Potomac TRACON
07:03AM 39.1167 -77.5667 360° North 202 232 6,000 -180 Level Potomac TRACON
07:04AM 39.1667 -77.5667 360° North 208 239 5,700 -540 Descending Potomac TRACON
07:05AM 39.2333 -77.5833 349° North 202 232 5,000 -360 Descending Potomac TRACON
07:06AM 39.2667 -77.5333 49° Northeast 240 276 5,000  Level Potomac TRACON
07:07AM 39.2667 -77.4667 90° East 241 277 5,000 -60 Level Potomac TRACON
07:08AM 39.2000 -77.4500 169° South 207 238 4,900 -600 Descending Potomac TRACON
07:09AM 39.1500 -77.4500 180° South 194 223 3,900 -960 Descending Potomac TRACON
07:10AM 39.1000 -77.4500 180° South 164 189 3,000 -900 Descending Potomac TRACON